sensor_id;sensor_type;location;lat;lon;timestamp;pressure;altitude;pressure_sealevel;temperature;humidity
59103;BME280;43999;51.660;5.616;2023-02-28T00:00:38;102886.66;;;-0.79;100.00
59103;BME280;43999;51.660;5.616;2023-02-28T00:03:06;102891.75;;;-0.80;100.00
59103;BME280;43999;51.660;5.616;2023-02-28T00:05:36;102891.66;;;-0.83;100.00
59103;BME280;43999;51.660;5.616;2023-02-28T00:08:05;102889.06;;;-0.85;100.00
59103;BME280;43999;51.660;5.616;2023-02-28T00:10:34;102892.41;;;-0.87;100.00
59103;BME280;43999;51.660;5.616;2023-02-28T00:13:08;102889.78;;;-0.89;100.00
59103;BME280;43999;51.660;5.616;2023-02-28T00:15:38;102898.34;;;-0.90;100.00
59103;BME280;43999;51.660;5.616;2023-02-28T00:18:07;102888.84;;;-0.93;100.00
59103;BME280;43999;51.660;5.616;2023-02-28T00:20:36;102887.09;;;-0.94;100.00
59103;BME280;43999;51.660;5.616;2023-02-28T00:23:05;102885.38;;;-0.93;100.00
59103;BME280;43999;51.660;5.616;2023-02-28T00:25:37;102881.09;;;-0.94;100.00
59103;BME280;43999;51.660;5.616;2023-02-28T00:28:07;102888.81;;;-0.94;100.00
59103;BME280;43999;51.660;5.616;2023-02-28T00:30:38;102890.50;;;-0.95;100.00
59103;BME280;43999;51.660;5.616;2023-02-28T00:33:07;102891.38;;;-0.94;100.00
59103;BME280;43999;51.660;5.616;2023-02-28T00:35:42;102890.50;;;-0.95;100.00
59103;BME280;43999;51.660;5.616;2023-02-28T00:38:14;102889.66;;;-0.94;100.00
59103;BME280;43999;51.660;5.616;2023-02-28T00:40:46;102889.66;;;-0.94;100.00
59103;BME280;43999;51.660;5.616;2023-02-28T00:43:37;102885.31;;;-0.96;100.00
59103;BME280;43999;51.660;5.616;2023-02-28T00:46:13;102879.34;;;-0.95;100.00
59103;BME280;43999;51.660;5.616;2023-02-28T00:48:41;102884.44;;;-0.97;100.00
59103;BME280;43999;51.660;5.616;2023-02-28T00:51:14;102886.09;;;-0.99;100.00
59103;BME280;43999;51.660;5.616;2023-02-28T00:53:47;102889.47;;;-1.01;100.00
59103;BME280;43999;51.660;5.616;2023-02-28T00:56:17;102880.88;;;-1.02;100.00
59103;BME280;43999;51.660;5.616;2023-02-28T00:58:47;102880.78;;;-1.05;100.00
59103;BME280;43999;51.660;5.616;2023-02-28T01:01:16;102888.47;;;-1.06;100.00
59103;BME280;43999;51.660;5.616;2023-02-28T01:03:50;102879.81;;;-1.09;100.00
59103;BME280;43999;51.660;5.616;2023-02-28T01:06:27;102885.78;;;-1.11;100.00
59103;BME280;43999;51.660;5.616;2023-02-28T01:08:57;102887.50;;;-1.10;100.00
59103;BME280;43999;51.660;5.616;2023-02-28T01:11:29;102894.28;;;-1.14;100.00
59103;BME280;43999;51.660;5.616;2023-02-28T01:14:01;102888.19;;;-1.17;100.00
59103;BME280;43999;51.660;5.616;2023-02-28T01:16:33;102904.38;;;-1.20;100.00
59103;BME280;43999;51.660;5.616;2023-02-28T01:19:03;102897.44;;;-1.22;100.00
59103;BME280;43999;51.660;5.616;2023-02-28T01:21:32;102889.63;;;-1.26;100.00
59103;BME280;43999;51.660;5.616;2023-02-28T01:24:03;102890.53;;;-1.25;100.00
59103;BME280;43999;51.660;5.616;2023-02-28T01:26:36;102905.03;;;-1.27;100.00
59103;BME280;43999;51.660;5.616;2023-02-28T01:30:07;102898.97;;;-1.29;100.00
59103;BME280;43999;51.660;5.616;2023-02-28T01:33:36;102899.88;;;-1.27;100.00
59103;BME280;43999;51.660;5.616;2023-02-28T01:36:19;102900.78;;;-1.27;100.00
59103;BME280;43999;51.660;5.616;2023-02-28T01:39:01;102898.22;;;-1.27;100.00
59103;BME280;43999;51.660;5.616;2023-02-28T01:41:36;102898.97;;;-1.29;100.00
59103;BME280;43999;51.660;5.616;2023-02-28T01:44:56;102889.63;;;-1.26;100.00
59103;BME280;43999;51.660;5.616;2023-02-28T01:47:50;102892.25;;;-1.24;100.00
59103;BME280;43999;51.660;5.616;2023-02-28T01:50:36;102882.88;;;-1.23;100.00
59103;BME280;43999;51.660;5.616;2023-02-28T01:53:18;102875.19;;;-1.22;100.00
59103;BME280;43999;51.660;5.616;2023-02-28T01:56:12;102878.66;;;-1.20;100.00
59103;BME280;43999;51.660;5.616;2023-02-28T01:58:50;102881.31;;;-1.17;100.00
59103;BME280;43999;51.660;5.616;2023-02-28T02:01:25;102880.59;;;-1.13;100.00
59103;BME280;43999;51.660;5.616;2023-02-28T02:04:04;102873.81;;;-1.09;100.00
59103;BME280;43999;51.660;5.616;2023-02-28T02:06:48;102883.31;;;-1.06;100.00
59103;BME280;43999;51.660;5.616;2023-02-28T02:09:19;102876.56;;;-1.03;100.00
59103;BME280;43999;51.660;5.616;2023-02-28T02:11:55;102874.91;;;-0.99;100.00
59103;BME280;43999;51.660;5.616;2023-02-28T02:14:36;102862.13;;;-0.96;100.00
59103;BME280;43999;51.660;5.616;2023-02-28T02:17:49;102865.66;;;-0.94;100.00
59103;BME280;43999;51.660;5.616;2023-02-28T02:24:03;102865.81;;;-0.88;100.00
59103;BME280;43999;51.660;5.616;2023-02-28T02:27:13;102864.22;;;-0.83;100.00
59103;BME280;43999;51.660;5.616;2023-02-28T02:36:51;102877.53;;;-0.66;100.00
59103;BME280;43999;51.660;5.616;2023-02-28T02:42:59;102864.03;;;-0.57;100.00
59103;BME280;43999;51.660;5.616;2023-02-28T02:47:08;102862.41;;;-0.52;100.00
59103;BME280;43999;51.660;5.616;2023-02-28T02:49:36;102869.44;;;-0.46;100.00
59103;BME280;43999;51.660;5.616;2023-02-28T02:52:13;102863.47;;;-0.44;100.00
59103;BME280;43999;51.660;5.616;2023-02-28T02:54:46;102860.94;;;-0.42;100.00
59103;BME280;43999;51.660;5.616;2023-02-28T02:57:44;102860.16;;;-0.40;100.00
59103;BME280;43999;51.660;5.616;2023-02-28T03:00:21;102856.72;;;-0.40;100.00
59103;BME280;43999;51.660;5.616;2023-02-28T03:02:54;102860.97;;;-0.41;100.00
59103;BME280;43999;51.660;5.616;2023-02-28T03:05:47;102868.69;;;-0.41;100.00
59103;BME280;43999;51.660;5.616;2023-02-28T03:08:20;102860.16;;;-0.40;100.00
59103;BME280;43999;51.660;5.616;2023-02-28T03:10:51;102861.94;;;-0.37;100.00
59103;BME280;43999;51.660;5.616;2023-02-28T03:20:25;102864.63;;;-0.32;100.00
59103;BME280;43999;51.660;5.616;2023-02-28T03:23:26;102857.81;;;-0.29;100.00
59103;BME280;43999;51.660;5.616;2023-02-28T03:26:21;102854.47;;;-0.26;100.00
59103;BME280;43999;51.660;5.616;2023-02-28T03:31:41;102863.94;;;-0.24;100.00
59103;BME280;43999;51.660;5.616;2023-02-28T03:34:26;102858.00;;;-0.21;100.00
59103;BME280;43999;51.660;5.616;2023-02-28T03:37:08;102848.56;;;-0.21;100.00
59103;BME280;43999;51.660;5.616;2023-02-28T03:39:50;102865.78;;;-0.20;100.00
59103;BME280;43999;51.660;5.616;2023-02-28T03:42:27;102861.50;;;-0.17;100.00
59103;BME280;43999;51.660;5.616;2023-02-28T03:45:08;102860.75;;;-0.13;100.00
59103;BME280;43999;51.660;5.616;2023-02-28T03:47:46;102859.00;;;-0.14;100.00
59103;BME280;43999;51.660;5.616;2023-02-28T03:50:40;102863.44;;;-0.09;100.00
59103;BME280;43999;51.660;5.616;2023-02-28T03:56:16;102858.41;;;-0.04;100.00
59103;BME280;43999;51.660;5.616;2023-02-28T04:04:12;102860.25;;;0.03;100.00
59103;BME280;43999;51.660;5.616;2023-02-28T04:06:41;102853.41;;;0.04;100.00
59103;BME280;43999;51.660;5.616;2023-02-28T04:09:12;102850.88;;;0.05;100.00
59103;BME280;43999;51.660;5.616;2023-02-28T04:11:46;102858.66;;;0.08;100.00
59103;BME280;43999;51.660;5.616;2023-02-28T04:14:19;102853.56;;;0.10;100.00
59103;BME280;43999;51.660;5.616;2023-02-28T04:16:57;102855.31;;;0.12;100.00
59103;BME280;43999;51.660;5.616;2023-02-28T04:19:29;102854.50;;;0.15;100.00
59103;BME280;43999;51.660;5.616;2023-02-28T04:22:11;102856.28;;;0.17;100.00
59103;BME280;43999;51.660;5.616;2023-02-28T04:24:46;102859.75;;;0.20;100.00
59103;BME280;43999;51.660;5.616;2023-02-28T04:27:21;102864.09;;;0.21;100.00
59103;BME280;43999;51.660;5.616;2023-02-28T04:30:05;102861.59;;;0.24;100.00
59103;BME280;43999;51.660;5.616;2023-02-28T04:32:38;102858.16;;;0.25;100.00
59103;BME280;43999;51.660;5.616;2023-02-28T04:35:08;102865.94;;;0.28;100.00
59103;BME280;43999;51.660;5.616;2023-02-28T04:37:40;102862.56;;;0.30;100.00
59103;BME280;43999;51.660;5.616;2023-02-28T04:40:08;102858.28;;;0.31;100.00
59103;BME280;43999;51.660;5.616;2023-02-28T04:42:38;102868.59;;;0.31;100.00
59103;BME280;43999;51.660;5.616;2023-02-28T04:45:07;102856.63;;;0.33;100.00
59103;BME280;43999;51.660;5.616;2023-02-28T04:47:40;102864.34;;;0.33;100.00
59103;BME280;43999;51.660;5.616;2023-02-28T04:50:08;102865.19;;;0.32;100.00
59103;BME280;43999;51.660;5.616;2023-02-28T04:52:38;102860.84;;;0.31;100.00
59103;BME280;43999;51.660;5.616;2023-02-28T04:55:06;102868.63;;;0.32;100.00
59103;BME280;43999;51.660;5.616;2023-02-28T04:57:36;102876.28;;;0.29;100.00
59103;BME280;43999;51.660;5.616;2023-02-28T05:00:04;102879.72;;;0.28;100.00
59103;BME280;43999;51.660;5.616;2023-02-28T05:02:34;102884.06;;;0.31;100.00
59103;BME280;43999;51.660;5.616;2023-02-28T05:05:05;102873.69;;;0.28;100.00
59103;BME280;43999;51.660;5.616;2023-02-28T05:07:35;102878.84;;;0.28;100.00
59103;BME280;43999;51.660;5.616;2023-02-28T05:10:03;102877.16;;;0.28;100.00
59103;BME280;43999;51.660;5.616;2023-02-28T05:12:35;102878.81;;;0.26;100.00
59103;BME280;43999;51.660;5.616;2023-02-28T05:15:03;102877.91;;;0.24;100.00
59103;BME280;43999;51.660;5.616;2023-02-28T05:17:34;102883.88;;;0.22;100.00
59103;BME280;43999;51.660;5.616;2023-02-28T05:20:03;102886.38;;;0.18;100.00
59103;BME280;43999;51.660;5.616;2023-02-28T05:22:43;102882.91;;;0.16;100.00
59103;BME280;43999;51.660;5.616;2023-02-28T05:25:17;102882.84;;;0.13;100.00
59103;BME280;43999;51.660;5.616;2023-02-28T05:27:49;102875.00;;;0.09;100.00
59103;BME280;43999;51.660;5.616;2023-02-28T05:30:20;102872.41;;;0.09;100.00
59103;BME280;43999;51.660;5.616;2023-02-28T05:32:51;102874.09;;;0.07;100.00
59103;BME280;43999;51.660;5.616;2023-02-28T05:35:20;102886.06;;;0.05;100.00
59103;BME280;43999;51.660;5.616;2023-02-28T05:37:52;102883.44;;;0.03;100.00
59103;BME280;43999;51.660;5.616;2023-02-28T05:40:19;102881.72;;;0.02;100.00
59103;BME280;43999;51.660;5.616;2023-02-28T05:42:50;102878.28;;;0.03;100.00
59103;BME280;43999;51.660;5.616;2023-02-28T05:45:46;102886.97;;;0.05;100.00
59103;BME280;43999;51.660;5.616;2023-02-28T05:49:11;102879.25;;;0.07;100.00
59103;BME280;43999;51.660;5.616;2023-02-28T05:52:10;102898.19;;;0.09;100.00
59103;BME280;43999;51.660;5.616;2023-02-28T05:54:38;102882.72;;;0.09;100.00
59103;BME280;43999;51.660;5.616;2023-02-28T05:57:08;102888.75;;;0.09;100.00
59103;BME280;43999;51.660;5.616;2023-02-28T05:59:50;102898.19;;;0.09;100.00
59103;BME280;43999;51.660;5.616;2023-02-28T06:02:19;102899.03;;;0.08;100.00
59103;BME280;43999;51.660;5.616;2023-02-28T06:04:48;102894.72;;;0.07;100.00
59103;BME280;43999;51.660;5.616;2023-02-28T06:07:20;102905.03;;;0.07;100.00
59103;BME280;43999;51.660;5.616;2023-02-28T06:09:50;102904.19;;;0.08;100.00
59103;BME280;43999;51.660;5.616;2023-02-28T06:12:20;102899.03;;;0.08;100.00
59103;BME280;43999;51.660;5.616;2023-02-28T06:14:49;102902.56;;;0.11;100.00
59103;BME280;43999;51.660;5.616;2023-02-28T06:17:21;102903.41;;;0.12;100.00
59103;BME280;43999;51.660;5.616;2023-02-28T06:19:51;102908.63;;;0.13;100.00
59103;BME280;43999;51.660;5.616;2023-02-28T06:22:23;102912.91;;;0.13;100.00
59103;BME280;43999;51.660;5.616;2023-02-28T06:25:08;102915.53;;;0.14;100.00
59103;BME280;43999;51.660;5.616;2023-02-28T06:27:42;102902.63;;;0.14;100.00
59103;BME280;43999;51.660;5.616;2023-02-28T06:30:18;102910.28;;;0.11;100.00
59103;BME280;43999;51.660;5.616;2023-02-28T06:32:54;102911.94;;;0.09;100.00
59103;BME280;43999;51.660;5.616;2023-02-28T06:35:25;102915.38;;;0.08;100.00
59103;BME280;43999;51.660;5.616;2023-02-28T06:37:55;102919.72;;;0.11;100.00
59103;BME280;43999;51.660;5.616;2023-02-28T06:40:25;102913.69;;;0.10;100.00
59103;BME280;43999;51.660;5.616;2023-02-28T06:42:54;102908.63;;;0.13;100.00
59103;BME280;43999;51.660;5.616;2023-02-28T06:45:24;102912.94;;;0.14;100.00
59103;BME280;43999;51.660;5.616;2023-02-28T06:47:54;102909.47;;;0.14;100.00
59103;BME280;43999;51.660;5.616;2023-02-28T06:50:29;102912.78;;;0.07;100.00
59103;BME280;43999;51.660;5.616;2023-02-28T06:53:04;102924.84;;;0.09;100.00
59103;BME280;43999;51.660;5.616;2023-02-28T06:55:52;102920.56;;;0.10;100.00
59103;BME280;43999;51.660;5.616;2023-02-28T06:58:30;102927.78;;;0.25;100.00
59103;BME280;43999;51.660;5.616;2023-02-28T07:00:59;102917.56;;;0.29;100.00
59103;BME280;43999;51.660;5.616;2023-02-28T07:03:27;102929.59;;;0.29;100.00
59103;BME280;43999;51.660;5.616;2023-02-28T07:05:56;102923.53;;;0.27;100.00
59103;BME280;43999;51.660;5.616;2023-02-28T07:08:40;102921.75;;;0.24;100.00
59103;BME280;43999;51.660;5.616;2023-02-28T07:11:15;102924.19;;;0.18;100.00
59103;BME280;43999;51.660;5.616;2023-02-28T07:14:10;102927.66;;;0.20;100.00
59103;BME280;43999;51.660;5.616;2023-02-28T07:16:40;102927.69;;;0.22;100.00
59103;BME280;43999;51.660;5.616;2023-02-28T07:19:13;102920.28;;;0.35;100.00
59103;BME280;43999;51.660;5.616;2023-02-28T07:21:47;102932.53;;;0.46;100.00
59103;BME280;43999;51.660;5.616;2023-02-28T07:24:20;102937.16;;;0.61;100.00
59103;BME280;43999;51.660;5.616;2023-02-28T07:26:48;102942.91;;;0.88;100.00
59103;BME280;43999;51.660;5.616;2023-02-28T07:29:29;102947.19;;;1.32;100.00
59103;BME280;43999;51.660;5.616;2023-02-28T07:32:02;102942.47;;;1.57;100.00
59103;BME280;43999;51.660;5.616;2023-02-28T07:34:37;102942.59;;;1.65;100.00
59103;BME280;43999;51.660;5.616;2023-02-28T07:37:12;102941.75;;;1.67;100.00
59103;BME280;43999;51.660;5.616;2023-02-28T07:39:41;102944.31;;;1.66;99.79
59103;BME280;43999;51.660;5.616;2023-02-28T07:42:09;102950.28;;;1.60;98.41
59103;BME280;43999;51.660;5.616;2023-02-28T07:44:41;102958.88;;;1.60;96.71
59103;BME280;43999;51.660;5.616;2023-02-28T07:47:09;102956.28;;;1.60;95.92
59103;BME280;43999;51.660;5.616;2023-02-28T07:49:40;102952.81;;;1.58;95.73
59103;BME280;43999;51.660;5.616;2023-02-28T07:52:13;102946.75;;;1.58;94.78
59103;BME280;43999;51.660;5.616;2023-02-28T07:54:41;102951.19;;;1.64;94.16
59103;BME280;43999;51.660;5.616;2023-02-28T07:57:18;102960.75;;;1.69;91.92
59103;BME280;43999;51.660;5.616;2023-02-28T07:59:48;102961.78;;;1.79;89.96
59103;BME280;43999;51.660;5.616;2023-02-28T08:02:18;102964.41;;;1.81;88.57
59103;BME280;43999;51.660;5.616;2023-02-28T08:04:46;102960.19;;;1.87;84.40
59103;BME280;43999;51.660;5.616;2023-02-28T08:07:15;102958.47;;;1.86;83.07
59103;BME280;43999;51.660;5.616;2023-02-28T08:09:45;102961.06;;;1.88;80.31
59103;BME280;43999;51.660;5.616;2023-02-28T08:12:15;102965.28;;;1.83;80.12
59103;BME280;43999;51.660;5.616;2023-02-28T08:14:42;102954.97;;;1.84;78.54
59103;BME280;43999;51.660;5.616;2023-02-28T08:17:11;102967.94;;;1.87;76.82
59103;BME280;43999;51.660;5.616;2023-02-28T08:19:41;102959.22;;;1.81;76.41
59103;BME280;43999;51.660;5.616;2023-02-28T08:22:13;102960.00;;;1.76;76.64
59103;BME280;43999;51.660;5.616;2023-02-28T08:24:46;102960.03;;;1.78;74.63
59103;BME280;43999;51.660;5.616;2023-02-28T08:27:17;102956.63;;;1.79;73.21
59103;BME280;43999;51.660;5.616;2023-02-28T08:29:55;102964.41;;;1.81;72.43
59103;BME280;43999;51.660;5.616;2023-02-28T08:32:25;102951.44;;;1.79;69.91
59103;BME280;43999;51.660;5.616;2023-02-28T08:34:58;102954.81;;;1.75;70.65
59103;BME280;43999;51.660;5.616;2023-02-28T08:37:26;102959.91;;;1.70;71.32
59103;BME280;43999;51.660;5.616;2023-02-28T08:40:29;102957.38;;;1.73;69.42
59103;BME280;43999;51.660;5.616;2023-02-28T08:42:56;102945.34;;;1.74;70.17
59103;BME280;43999;51.660;5.616;2023-02-28T08:45:27;102948.84;;;1.79;70.21
59103;BME280;43999;51.660;5.616;2023-02-28T08:47:56;102944.53;;;1.79;69.61
59103;BME280;43999;51.660;5.616;2023-02-28T08:50:24;102945.31;;;1.72;70.85
59103;BME280;43999;51.660;5.616;2023-02-28T08:52:51;102952.22;;;1.75;68.74
59103;BME280;43999;51.660;5.616;2023-02-28T08:55:21;102957.47;;;1.79;68.08
59103;BME280;43999;51.660;5.616;2023-02-28T08:57:49;102961.72;;;1.76;69.03
59103;BME280;43999;51.660;5.616;2023-02-28T09:00:18;102960.91;;;1.78;70.08
59103;BME280;43999;51.660;5.616;2023-02-28T09:02:47;102965.25;;;1.81;68.47
59103;BME280;43999;51.660;5.616;2023-02-28T09:05:17;102961.97;;;1.90;65.80
59103;BME280;43999;51.660;5.616;2023-02-28T09:07:46;102962.00;;;1.91;65.99
59103;BME280;43999;51.660;5.616;2023-02-28T09:10:15;102961.28;;;2.00;64.07
59103;BME280;43999;51.660;5.616;2023-02-28T09:12:45;102953.53;;;2.02;63.45
59103;BME280;43999;51.660;5.616;2023-02-28T09:15:15;102955.25;;;2.01;63.60
59103;BME280;43999;51.660;5.616;2023-02-28T09:17:42;102962.13;;;2.01;63.28
59103;BME280;43999;51.660;5.616;2023-02-28T09:20:15;102953.63;;;2.08;61.82
59103;BME280;43999;51.660;5.616;2023-02-28T09:22:42;102949.22;;;2.01;62.20
59103;BME280;43999;51.660;5.616;2023-02-28T09:25:18;102956.91;;;1.97;62.76
59103;BME280;43999;51.660;5.616;2023-02-28T09:27:45;102950.97;;;2.02;62.55
59103;BME280;43999;51.660;5.616;2023-02-28T09:30:15;102956.28;;;2.12;61.44
59103;BME280;43999;51.660;5.616;2023-02-28T09:32:43;102961.34;;;2.05;61.31
59103;BME280;43999;51.660;5.616;2023-02-28T09:35:21;102949.28;;;2.05;61.03
59103;BME280;43999;51.660;5.616;2023-02-28T09:37:56;102952.69;;;2.03;59.33
59103;BME280;43999;51.660;5.616;2023-02-28T09:40:25;102955.25;;;2.01;60.28
59103;BME280;43999;51.660;5.616;2023-02-28T09:42:55;102956.22;;;2.08;59.40
59103;BME280;43999;51.660;5.616;2023-02-28T09:48:17;102956.44;;;2.22;58.28
59103;BME280;43999;51.660;5.616;2023-02-28T09:51:02;102953.88;;;2.23;57.31
59103;BME280;43999;51.660;5.616;2023-02-28T09:53:33;102953.03;;;2.26;57.74
59103;BME280;43999;51.660;5.616;2023-02-28T09:56:12;102955.72;;;2.33;55.40
59103;BME280;43999;51.660;5.616;2023-02-28T09:59:01;102950.50;;;2.30;55.47
59103;BME280;43999;51.660;5.616;2023-02-28T10:01:53;102950.50;;;2.30;55.51
59103;BME280;43999;51.660;5.616;2023-02-28T10:04:54;102953.13;;;2.33;55.87
59103;BME280;43999;51.660;5.616;2023-02-28T10:10:38;102944.63;;;2.41;55.64
59103;BME280;43999;51.660;5.616;2023-02-28T10:13:29;102936.13;;;2.48;54.80
59103;BME280;43999;51.660;5.616;2023-02-28T10:16:14;102941.38;;;2.54;52.87
59103;BME280;43999;51.660;5.616;2023-02-28T10:24:35;102931.13;;;2.65;53.52
59103;BME280;43999;51.660;5.616;2023-02-28T10:27:23;102928.66;;;2.76;52.80
59103;BME280;43999;51.660;5.616;2023-02-28T10:29:56;102932.94;;;2.71;53.44
59103;BME280;43999;51.660;5.616;2023-02-28T10:32:32;102933.81;;;2.73;53.88
59103;BME280;43999;51.660;5.616;2023-02-28T10:35:14;102931.31;;;2.80;53.77
59103;BME280;43999;51.660;5.616;2023-02-28T10:37:55;102946.03;;;2.83;52.95
59103;BME280;43999;51.660;5.616;2023-02-28T10:40:28;102931.38;;;2.85;52.54
59103;BME280;43999;51.660;5.616;2023-02-28T10:43:27;102925.47;;;2.97;51.56
59103;BME280;43999;51.660;5.616;2023-02-28T10:46:14;102923.75;;;3.89;50.04
59103;BME280;43999;51.660;5.616;2023-02-28T10:49:07;102919.13;;;4.94;48.36
59103;BME280;43999;51.660;5.616;2023-02-28T10:51:44;102924.41;;;5.67;47.91
59103;BME280;43999;51.660;5.616;2023-02-28T10:54:37;102915.66;;;6.45;45.97
59103;BME280;43999;51.660;5.616;2023-02-28T10:57:20;102915.38;;;7.10;43.88
59103;BME280;43999;51.660;5.616;2023-02-28T11:00:13;102903.72;;;7.57;43.77
59103;BME280;43999;51.660;5.616;2023-02-28T11:02:51;102900.53;;;8.19;42.12
59103;BME280;43999;51.660;5.616;2023-02-28T11:05:40;102907.81;;;8.70;39.32
59103;BME280;43999;51.660;5.616;2023-02-28T11:08:16;102909.19;;;8.99;38.38
59103;BME280;43999;51.660;5.616;2023-02-28T11:10:55;102911.59;;;9.12;37.10
59103;BME280;43999;51.660;5.616;2023-02-28T11:13:28;102907.19;;;9.16;36.94
59103;BME280;43999;51.660;5.616;2023-02-28T11:16:04;102896.03;;;9.05;36.82
59103;BME280;43999;51.660;5.616;2023-02-28T11:18:41;102901.50;;;8.88;37.71
59103;BME280;43999;51.660;5.616;2023-02-28T11:21:25;102900.50;;;8.95;36.87
59103;BME280;43999;51.660;5.616;2023-02-28T11:24:22;102889.06;;;9.04;36.46
59103;BME280;43999;51.660;5.616;2023-02-28T11:29:59;102896.53;;;9.28;36.72
59103;BME280;43999;51.660;5.616;2023-02-28T11:32:29;102888.63;;;9.31;37.26
59103;BME280;43999;51.660;5.616;2023-02-28T11:37:58;102895.69;;;9.25;36.00
59103;BME280;43999;51.660;5.616;2023-02-28T11:46:46;102881.22;;;8.34;36.56
59103;BME280;43999;51.660;5.616;2023-02-28T12:02:20;102874.78;;;7.85;38.25
59103;BME280;43999;51.660;5.616;2023-02-28T12:13:51;102866.50;;;8.26;36.87
59103;BME280;43999;51.660;5.616;2023-02-28T12:17:12;102862.91;;;8.37;37.00
59103;BME280;43999;51.660;5.616;2023-02-28T12:26:19;102843.56;;;8.52;36.61
59103;BME280;43999;51.660;5.616;2023-02-28T12:29:33;102853.94;;;8.59;36.55
59103;BME280;43999;51.660;5.616;2023-02-28T12:32:16;102848.84;;;8.47;36.78
59103;BME280;43999;51.660;5.616;2023-02-28T12:34:55;102835.06;;;8.34;36.12
59103;BME280;43999;51.660;5.616;2023-02-28T12:37:43;102833.41;;;8.25;35.69
59103;BME280;43999;51.660;5.616;2023-02-28T12:40:23;102837.91;;;8.14;37.96
59103;BME280;43999;51.660;5.616;2023-02-28T12:43:02;102840.38;;;8.28;36.88
59103;BME280;43999;51.660;5.616;2023-02-28T12:45:59;102841.31;;;8.21;36.62
59103;BME280;43999;51.660;5.616;2023-02-28T12:49:36;102828.53;;;7.96;36.68
59103;BME280;43999;51.660;5.616;2023-02-28T12:52:02;102833.94;;;7.82;37.56
59103;BME280;43999;51.660;5.616;2023-02-28T12:54:42;102826.19;;;7.73;37.81
59103;BME280;43999;51.660;5.616;2023-02-28T12:57:36;102827.91;;;7.72;38.19
59103;BME280;43999;51.660;5.616;2023-02-28T13:00:35;102822.78;;;7.65;37.84
59103;BME280;43999;51.660;5.616;2023-02-28T13:09:19;102793.72;;;7.99;38.70
59103;BME280;43999;51.660;5.616;2023-02-28T13:11:52;102796.97;;;8.16;38.26
59103;BME280;43999;51.660;5.616;2023-02-28T13:24:55;102790.19;;;8.03;37.32
59103;BME280;43999;51.660;5.616;2023-02-28T13:27:41;102785.13;;;7.89;37.09
59103;BME280;43999;51.660;5.616;2023-02-28T13:33:34;102794.50;;;8.05;38.30
59103;BME280;43999;51.660;5.616;2023-02-28T13:36:10;102788.19;;;8.22;37.98
59103;BME280;43999;51.660;5.616;2023-02-28T13:38:55;102787.38;;;8.20;36.70
59103;BME280;43999;51.660;5.616;2023-02-28T13:41:47;102774.13;;;8.34;37.25
59103;BME280;43999;51.660;5.616;2023-02-28T13:44:24;102775.41;;;8.67;37.04
59103;BME280;43999;51.660;5.616;2023-02-28T13:47:19;102773.13;;;9.05;36.15
59103;BME280;43999;51.660;5.616;2023-02-28T13:54:03;102769.06;;;9.37;34.92
59103;BME280;43999;51.660;5.616;2023-02-28T13:57:25;102772.47;;;9.40;34.74
59103;BME280;43999;51.660;5.616;2023-02-28T14:06:56;102772.19;;;9.56;34.94
59103;BME280;43999;51.660;5.616;2023-02-28T14:09:35;102763.88;;;9.33;35.15
59103;BME280;43999;51.660;5.616;2023-02-28T14:12:53;102774.91;;;9.51;35.31
59103;BME280;43999;51.660;5.616;2023-02-28T14:18:31;102766.56;;;9.77;33.79
59103;BME280;43999;51.660;5.616;2023-02-28T14:21:30;102776.34;;;9.67;34.01
59103;BME280;43999;51.660;5.616;2023-02-28T14:24:20;102765.06;;;9.65;34.58
59103;BME280;43999;51.660;5.616;2023-02-28T14:33:27;102753.19;;;9.46;35.17
59103;BME280;43999;51.660;5.616;2023-02-28T14:36:44;102759.31;;;9.45;35.02
59103;BME280;43999;51.660;5.616;2023-02-28T14:39:44;102760.00;;;9.56;34.77
59103;BME280;43999;51.660;5.616;2023-02-28T14:42:45;102757.56;;;9.91;34.45
59103;BME280;43999;51.660;5.616;2023-02-28T14:45:38;102764.06;;;10.15;34.29
59103;BME280;43999;51.660;5.616;2023-02-28T14:48:37;102751.28;;;10.42;34.27
59103;BME280;43999;51.660;5.616;2023-02-28T14:51:28;102747.09;;;10.70;34.42
59103;BME280;43999;51.660;5.616;2023-02-28T14:54:06;102753.72;;;10.87;33.65
59103;BME280;43999;51.660;5.616;2023-02-28T14:56:37;102747.69;;;11.18;33.33
59103;BME280;43999;51.660;5.616;2023-02-28T14:59:31;102754.31;;;11.33;32.39
59103;BME280;43999;51.660;5.616;2023-02-28T15:02:22;102743.94;;;11.28;32.00
59103;BME280;43999;51.660;5.616;2023-02-28T15:07:49;102748.38;;;10.54;33.46
59103;BME280;43999;51.660;5.616;2023-02-28T15:10:37;102748.56;;;10.05;32.98
59103;BME280;43999;51.660;5.616;2023-02-28T15:13:12;102761.25;;;9.80;34.17
59103;BME280;43999;51.660;5.616;2023-02-28T15:15:59;102749.66;;;9.94;33.57
59103;BME280;43999;51.660;5.616;2023-02-28T15:19:02;102754.88;;;9.94;34.57
59103;BME280;43999;51.660;5.616;2023-02-28T15:21:54;102754.44;;;10.15;34.64
59103;BME280;43999;51.660;5.616;2023-02-28T15:24:50;102753.81;;;10.46;33.99
59103;BME280;43999;51.660;5.616;2023-02-28T15:27:23;102753.72;;;10.49;33.41
59103;BME280;43999;51.660;5.616;2023-02-28T15:29:58;102748.84;;;10.71;33.03
59103;BME280;43999;51.660;5.616;2023-02-28T15:32:41;102751.75;;;10.95;32.93
59103;BME280;43999;51.660;5.616;2023-02-28T15:35:27;102747.13;;;11.06;33.11
59103;BME280;43999;51.660;5.616;2023-02-28T15:38:37;102753.34;;;11.35;31.89
59103;BME280;43999;51.660;5.616;2023-02-28T15:41:34;102755.13;;;11.35;32.40
59103;BME280;43999;51.660;5.616;2023-02-28T15:44:27;102747.78;;;11.47;32.35
59103;BME280;43999;51.660;5.616;2023-02-28T15:47:29;102748.69;;;11.46;31.95
59103;BME280;43999;51.660;5.616;2023-02-28T15:50:03;102743.78;;;11.34;32.22
59103;BME280;43999;51.660;5.616;2023-02-28T15:52:43;102753.75;;;11.54;32.49
59103;BME280;43999;51.660;5.616;2023-02-28T15:55:28;102749.44;;;11.52;32.57
59103;BME280;43999;51.660;5.616;2023-02-28T15:58:05;102741.41;;;11.25;32.30
59103;BME280;43999;51.660;5.616;2023-02-28T16:01:27;102737.09;;;10.88;32.82